Time;durP1;ratioP1;P1;durP2;ratioP2;P2;SDS_P1;SDS_P2;PMS_P1;PMS_P2;Temp;Humidity;BMP_temperature;BMP_pressure;BME280_temperature;BME280_humidity;BME280_pressure;Samples;Min_cycle;Max_cycle;Signal;HPM_P1;HPM_P2
2023/07/20 00:02:12;;;;;;;5.00;3.20;;;;;;;17.57;66.91;99669.61;126216;1288;114921;-68
2023/07/20 00:05:46;;;;;;;;;;;;;;;;;;;;;
2023/07/20 00:09:23;;;;;;;6.00;3.20;;;;;;;17.47;67.50;99667.09;126992;1286;114763;-68
2023/07/20 00:12:38;;;;;;;;;;;;;;;;;;;;;
2023/07/20 00:16:10;;;;;;;5.90;3.60;;;;;;;17.36;68.11;99670.98;128413;1287;115182;-66
2023/07/20 00:19:54;;;;;;;6.40;3.40;;;;;;;17.31;68.63;99676.75;127655;1303;114882;-67
2023/07/20 00:23:25;;;;;;;8.20;4.10;;;;;;;17.27;68.98;99682.58;127809;1285;114875;-68
2023/07/20 00:30:59;;;;;;;;;;;;;;;;;;;;;
2023/07/20 00:34:50;;;;;;;;;;;;;;;;;;;;;
2023/07/20 00:38:42;;;;;;;4.70;3.40;;;;;;;17.07;70.51;99707.02;126153;1311;114977;-68
2023/07/20 00:42:22;;;;;;;6.00;3.30;;;;;;;17.01;70.92;99707.49;126054;1301;114928;-68
2023/07/20 00:46:22;;;;;;;;;;;;;;;;;;;;;
2023/07/20 00:49:38;;;;;;;7.40;3.90;;;;;;;16.94;71.53;99717.30;125772;1320;129722;-67
2023/07/20 00:53:38;;;;;;;;;;;;;;;;;;;;;
2023/07/20 00:57:23;;;;;;;9.60;4.70;;;;;;;16.91;72.30;99704.04;125807;1308;115125;-68
2023/07/20 01:01:08;;;;;;;;;;;;;;;;;;;;;
2023/07/20 01:04:58;;;;;;;;;;;;;;;;;;;;;
2023/07/20 01:09:42;;;;;;;7.70;4.10;;;;;;;16.86;72.86;99680.27;125801;1304;638733;-68
2023/07/20 01:13:34;;;;;;;;;;;;;;;;;;;;;
2023/07/20 01:17:20;;;;;;;9.40;4.40;;;;;;;16.77;73.35;99701.27;127165;1308;115272;-67
2023/07/20 01:21:28;;;;;;;8.20;4.10;;;;;;;16.75;73.96;99689.54;123350;1290;5446727;-67
2023/07/20 01:25:38;;;;;;;5.80;4.20;;;;;;;16.74;74.31;99693.36;126610;1292;114942;-67
2023/07/20 01:29:28;;;;;;;6.60;3.80;;;;;;;16.72;74.66;99690.46;126733;1293;114967;-68
2023/07/20 01:33:20;;;;;;;;;;;;;;;;;;;;;
2023/07/20 01:37:27;;;;;;;5.20;4.00;;;;;;;16.70;75.47;99694.95;125665;1296;129962;-69
2023/07/20 01:41:14;;;;;;;5.00;4.50;;;;;;;16.69;75.79;99674.14;124451;1309;116634;-69
2023/07/20 01:45:16;;;;;;;6.90;4.30;;;;;;;16.65;75.87;99672.13;124264;1315;115018;-69
2023/07/20 01:49:04;;;;;;;7.70;4.70;;;;;;;16.60;75.82;99682.13;124027;1329;115128;-69
2023/07/20 01:53:06;;;;;;;4.80;4.00;;;;;;;16.52;75.67;99686.00;125054;1309;114868;-69
2023/07/20 01:57:07;;;;;;;8.40;4.30;;;;;;;16.43;75.85;99681.21;125025;1310;129992;-66
2023/07/20 02:05:20;;;;;;;;;;;;;;;;;;;;;
2023/07/20 02:09:25;;;;;;;5.60;4.00;;;;;;;16.17;76.45;99680.98;128487;1276;128058;-68
2023/07/20 02:17:23;;;;;;;6.30;4.90;;;;;;;16.01;76.92;99689.68;122128;1301;5428158;-66
2023/07/20 02:21:25;;;;;;;9.80;4.10;;;;;;;15.93;77.25;99687.80;125679;1304;114984;-66
2023/07/20 02:34:01;;;;;;;6.80;4.20;;;;;;;15.77;77.82;99688.55;125562;1303;637878;-68
2023/07/20 02:37:52;;;;;;;10.20;4.80;;;;;;;15.71;78.13;99684.52;127860;1285;128008;-68
2023/07/20 02:41:54;;;;;;;6.20;4.90;;;;;;;15.67;78.35;99684.50;128597;1277;115190;-67
2023/07/20 02:50:03;;;;;;;11.30;5.10;;;;;;;15.56;78.41;99687.94;126896;1293;114768;-68
2023/07/20 02:54:04;;;;;;;7.60;4.60;;;;;;;15.51;78.72;99691.89;126838;1304;114918;-67
2023/07/20 03:06:41;;;;;;;7.40;4.40;;;;;;;15.41;79.23;99690.73;125733;1302;639342;-67
2023/07/20 03:10:43;;;;;;;6.30;4.40;;;;;;;15.37;79.69;99691.27;128817;1273;129030;-65
2023/07/20 03:18:53;;;;;;;9.10;4.30;;;;;;;15.31;80.01;99686.60;123167;1287;5532217;-67
2023/07/20 03:22:45;;;;;;;4.50;3.70;;;;;;;15.30;80.17;99694.30;126370;1289;115028;-65
2023/07/20 03:30:48;;;;;;;5.80;3.90;;;;;;;15.29;80.30;99695.06;124920;1313;130027;-67
2023/07/20 03:39:22;;;;;;;14.60;5.60;;;;;;;15.35;80.81;99700.73;125891;1301;638442;-66
2023/07/20 03:43:24;;;;;;;10.00;5.30;;;;;;;15.36;80.93;99700.66;127821;1283;127880;-67
2023/07/20 03:47:33;;;;;;;7.30;5.10;;;;;;;15.39;81.30;99704.19;128236;1277;116346;-68
2023/07/20 03:51:37;;;;;;;8.60;5.80;;;;;;;15.41;81.49;99706.54;123818;1282;5484157;-65
2023/07/20 03:55:40;;;;;;;7.50;5.00;;;;;;;15.42;81.46;99694.20;126675;1304;114951;-67
2023/07/20 04:04:13;;;;;;;7.60;5.20;;;;;;;15.52;81.66;99703.52;125717;1304;640124;-68
2023/07/20 04:08:16;;;;;;;12.70;7.00;;;;;;;15.57;82.16;99694.79;127244;1291;128965;-67
2023/07/20 04:20:52;;;;;;;11.00;5.70;;;;;;;15.93;82.30;99695.75;125804;1298;638623;-68
2023/07/20 04:24:55;;;;;;;8.80;6.00;;;;;;;16.14;82.70;99707.57;128592;1295;128605;-67
2023/07/20 04:28:56;;;;;;;;;;;;;;;;;;;;;
2023/07/20 04:32:59;;;;;;;12.90;6.30;;;;;;;16.56;82.67;99715.83;123393;1288;5601186;-67
2023/07/20 04:37:01;;;;;;;7.80;6.20;;;;;;;16.63;82.45;99718.41;126997;1288;114826;-65
2023/07/20 04:49:03;;;;;;;;;;;;;;;;;;;;;
2023/07/20 05:01:40;;;;;;;;;;;;;;;;;;;;;
2023/07/20 05:05:44;;;;;;;9.60;5.30;;;;;;;17.56;81.91;99740.64;128782;1274;115344;-66
2023/07/20 05:09:51;;;;;;;9.90;6.00;;;;;;;17.76;82.11;99740.41;123597;1305;5433859;-67
2023/07/20 05:13:41;;;;;;;;;;;;;;;;;;;;;
2023/07/20 05:22:08;;;;;;;7.40;5.20;;;;;;;18.47;82.03;99752.83;125878;1298;637321;-68
2023/07/20 05:26:11;;;;;;;13.40;5.70;;;;;;;19.23;82.05;99756.88;128467;1275;128627;-68
2023/07/20 05:30:12;;;;;;;;;;;;;;;;;;;;;
2023/07/20 05:38:06;;;;;;;;;;;;;;;;;;;;;
2023/07/20 05:46:26;;;;;;;;;;;;;;;;;;;;;
2023/07/20 05:50:30;;;;;;;12.00;5.40;;;;;;;19.66;77.29;99776.56;128235;1296;128879;-68
2023/07/20 05:54:20;;;;;;;;;;;;;;;;;;;;;
2023/07/20 05:59:01;;;;;;;8.70;5.80;;;;;;;19.89;77.28;99774.91;125903;1297;636060;-67
2023/07/20 06:02:54;;;;;;;10.50;5.10;;;;;;;19.99;76.82;99771.05;128933;1271;128927;-68
2023/07/20 06:07:00;;;;;;;7.20;4.10;;;;;;;19.98;76.64;99773.80;129264;1267;115214;-66
2023/07/20 06:10:45;;;;;;;7.10;5.20;;;;;;;19.94;75.96;99773.14;128439;1277;512128;-67
2023/07/20 06:14:46;;;;;;;;;;;;;;;;;;;;;
2023/07/20 06:23:23;;;;;;;8.20;4.80;;;;;;;20.97;76.38;99784.20;125986;1296;637643;-66
2023/07/20 06:27:16;;;;;;;8.60;5.20;;;;;;;21.68;75.53;99786.17;127270;1307;127830;-68
2023/07/20 06:31:09;;;;;;;8.70;4.50;;;;;;;22.46;74.92;99783.67;126546;1292;115308;-69
2023/07/20 06:35:13;;;;;;;13.00;5.10;;;;;;;22.85;72.68;99787.58;123764;1301;2796891;-67
2023/07/20 06:39:14;;;;;;;6.40;4.90;;;;;;;22.85;71.26;99789.59;124917;1305;115006;-67
2023/07/20 06:47:44;;;;;;;7.60;4.60;;;;;;;22.50;70.10;99800.89;125993;1298;638352;-67
2023/07/20 06:51:49;;;;;;;9.10;4.80;;;;;;;22.17;69.78;99805.11;128733;1295;128128;-68
2023/07/20 06:55:49;;;;;;;;;;;;;;;;;;;;;
2023/07/20 06:59:51;;;;;;;8.50;5.00;;;;;;;21.99;69.47;99803.51;122897;1292;5517048;-68
2023/07/20 07:08:18;;;;;;;10.10;5.30;;;;;;;22.17;69.42;99808.73;125753;1298;636275;-67
2023/07/20 07:12:21;;;;;;;12.90;5.50;;;;;;;22.37;69.36;99805.23;127337;1288;129332;-67
2023/07/20 07:16:20;;;;;;;;;;;;;;;;;;;;;
2023/07/20 07:20:15;;;;;;;;;;;;;;;;;;;;;
2023/07/20 07:24:07;;;;;;;;;;;;;;;;;;;;;
2023/07/20 07:32:33;;;;;;;6.80;4.50;;;;;;;24.61;65.94;99802.41;126060;1304;638632;-68
2023/07/20 07:36:25;;;;;;;;;;;;;;;;;;;;;
2023/07/20 07:40:33;;;;;;;10.40;5.20;;;;;;;24.71;64.35;99809.92;126219;1299;116397;-69
2023/07/20 07:44:33;;;;;;;10.60;4.40;;;;;;;25.02;63.82;99806.73;121667;1322;5539278;-68
2023/07/20 07:48:13;;;;;;;;;;;;;;;;;;;;;
2023/07/20 07:52:07;;;;;;;8.50;3.50;;;;;;;26.96;62.17;99808.94;124838;1314;114770;-69
2023/07/20 07:55:38;;;;;;;6.50;4.50;;;;;;;27.68;60.32;99807.14;124485;1313;116443;-67
2023/07/20 07:59:17;;;;;;;;;;;;;;;;;;;;;
2023/07/20 08:03:19;;;;;;;;;;;;;;;;;;;;;
2023/07/20 08:11:20;;;;;;;7.00;3.30;;;;;;;27.26;56.33;99807.69;126025;1295;638570;-67
2023/07/20 08:15:24;;;;;;;6.00;3.50;;;;;;;27.13;55.38;99811.84;128293;1281;119929;-66
2023/07/20 08:19:26;;;;;;;5.00;3.40;;;;;;;26.95;55.04;99816.53;127047;1301;114884;-69
2023/07/20 08:23:01;;;;;;;5.70;3.00;;;;;;;26.83;54.51;99819.70;122023;1299;5491221;-68
2023/07/20 08:26:52;;;;;;;5.20;2.70;;;;;;;27.08;54.94;99820.45;125638;1320;114958;-68
2023/07/20 08:30:23;;;;;;;6.00;2.80;;;;;;;27.64;53.97;99811.95;124961;1311;115051;-69
2023/07/20 08:34:25;;;;;;;4.80;2.50;;;;;;;28.20;53.65;99809.27;125072;1313;114953;-67
2023/07/20 08:42:42;;;;;;;4.30;2.40;;;;;;;29.65;51.98;99800.98;126381;1292;636081;-66
2023/07/20 08:46:46;;;;;;;3.70;2.10;;;;;;;29.64;50.33;99808.72;128680;1276;120263;-66
2023/07/20 08:50:46;;;;;;;2.20;1.60;;;;;;;29.33;49.06;99811.85;126989;1289;114929;-69
2023/07/20 08:54:48;;;;;;;;;;;;;;;;;;;;;
2023/07/20 08:58:42;;;;;;;2.70;2.30;;;;;;;28.91;47.79;99814.25;125918;1298;114872;-65
2023/07/20 09:02:44;;;;;;;1.90;1.60;;;;;;;28.57;47.46;99815.84;125389;1323;114940;-68
2023/07/20 09:06:43;;;;;;;5.90;1.80;;;;;;;28.08;46.84;99813.05;124518;1313;116734;-66
2023/07/20 09:10:44;;;;;;;2.60;1.60;;;;;;;27.67;47.14;99813.49;124434;1315;119297;-67
2023/07/20 09:18:44;;;;;;;4.30;2.00;;;;;;;27.16;48.06;99809.67;126364;1297;636624;-68
2023/07/20 09:22:28;;;;;;;3.20;1.80;;;;;;;27.25;47.74;99811.31;129418;1271;119345;-69
2023/07/20 09:26:32;;;;;;;2.60;2.00;;;;;;;27.31;47.41;99815.47;128691;1279;114898;-68
2023/07/20 09:30:12;;;;;;;;;;;;;;;;;;;;;
2023/07/20 09:34:00;;;;;;;;;;;;;;;;;;;;;
2023/07/20 09:37:23;;;;;;;3.80;1.50;;;;;;;27.07;46.48;99807.42;127501;1292;115479;-69
2023/07/20 09:41:30;;;;;;;1.50;1.30;;;;;;;27.05;46.05;99805.38;127573;1304;114835;-68
2023/07/20 09:45:12;;;;;;;2.10;1.40;;;;;;;27.11;46.49;99801.33;127419;1306;120332;-67
2023/07/20 09:53:14;;;;;;;2.60;1.20;;;;;;;27.61;45.67;99798.13;127816;1282;114975;-68
2023/07/20 09:56:55;;;;;;;9.50;1.60;;;;;;;27.72;45.38;99795.16;128026;1284;114909;-67
2023/07/20 10:01:28;;;;;;;1.60;1.50;;;;;;;27.65;44.89;99798.08;128132;1284;114812;-69
2023/07/20 10:05:14;;;;;;;3.80;1.60;;;;;;;27.46;44.10;99796.17;127389;1285;121325;-67
2023/07/20 10:09:15;;;;;;;1.80;1.10;;;;;;;27.23;44.44;99791.23;126784;1310;116438;-68
2023/07/20 10:13:16;;;;;;;1.90;1.10;;;;;;;27.11;44.41;99788.47;126390;1286;115059;-67
2023/07/20 10:17:23;;;;;;;;;;;;;;;;;;;;;
2023/07/20 10:21:15;;;;;;;3.10;1.00;;;;;;;26.97;44.82;99779.89;125383;1314;114833;-68
2023/07/20 10:29:27;;;;;;;1.90;0.90;;;;;;;26.87;44.41;99775.00;126472;1293;639278;-68
2023/07/20 10:33:23;;;;;;;1.70;1.30;;;;;;;26.86;44.26;99776.06;128812;1277;120286;-67
2023/07/20 10:45:41;;;;;;;3.60;1.30;;;;;;;26.58;43.56;99769.89;125912;1320;114971;-69
2023/07/20 10:49:43;;;;;;;3.50;1.50;;;;;;;26.56;43.66;99766.79;125077;1306;115227;-67
2023/07/20 10:53:58;;;;;;;2.50;1.10;;;;;;;26.69;44.09;99760.23;125165;1326;120892;-68
2023/07/20 10:58:03;;;;;;;2.90;1.60;;;;;;;26.82;43.40;99759.14;125246;1307;114985;-68
2023/07/20 11:02:05;;;;;;;2.40;2.20;;;;;;;27.02;43.23;99756.33;124655;1324;114888;-67
2023/07/20 11:06:12;;;;;;;2.20;1.30;;;;;;;27.30;43.30;99747.38;123732;1321;114895;-67
2023/07/20 11:10:18;;;;;;;1.60;1.10;;;;;;;27.54;43.04;99743.55;123979;1318;114977;-67
2023/07/20 11:18:54;;;;;;;1.80;1.00;;;;;;;28.06;42.64;99738.47;125868;1301;639523;-66
2023/07/20 11:22:54;;;;;;;2.10;1.20;;;;;;;28.26;42.07;99741.75;129138;1271;120403;-67
2023/07/20 11:26:32;;;;;;;1.50;1.40;;;;;;;28.43;41.78;99750.93;129044;1270;115020;-66
2023/07/20 11:30:36;;;;;;;1.20;0.90;;;;;;;28.33;41.01;99750.81;124428;1290;5431273;-65
2023/07/20 11:34:27;;;;;;;3.20;1.40;;;;;;;27.97;41.03;99765.11;127035;1304;114979;-68
2023/07/20 11:38:07;;;;;;;;;;;;;;;27.55;42.17;99780.30;126241;1297;115274;-67
2023/07/20 11:41:58;;;;;;;1.70;1.10;;;;;;;27.15;43.08;99786.00;125653;1300;114891;-68
2023/07/20 11:45:51;;;;;;;1.10;1.00;;;;;;;26.80;43.47;99787.68;125146;1310;121135;-70
2023/07/20 11:49:31;;;;;;;;;;;;;;;;;;;;;
2023/07/20 11:53:20;;;;;;;2.20;1.20;;;;;;;26.23;44.30;99794.33;124453;1312;114906;-67
2023/07/20 11:57:44;;;;;;;2.80;1.10;;;;;;;26.11;45.00;99797.42;126121;1300;635483;-66
2023/07/20 12:01:28;;;;;;;;;;;;;;;;;;;;;
2023/07/20 12:05:34;;;;;;;2.20;1.60;;;;;;;26.02;46.38;99813.74;127998;1284;114878;-67
2023/07/20 12:08:38;;;;;;;2.20;1.50;;;;;;;26.01;46.70;99817.73;124140;1286;5445115;-68
2023/07/20 12:12:13;;;;;;;;;;;;;;;;;;;;;
2023/07/20 12:15:40;;;;;;;1.80;1.70;;;;;;;26.04;47.35;99821.20;129289;1277;115048;-69
2023/07/20 12:19:44;;;;;;;6.00;1.90;;;;;;;26.04;47.43;99823.98;129387;1268;118869;-66
2023/07/20 12:23:47;;;;;;;4.60;2.00;;;;;;;26.07;47.84;99817.69;129491;1268;114770;-65
2023/07/20 12:27:18;;;;;;;2.70;1.70;;;;;;;26.08;47.76;99819.91;128967;1273;114879;-67
2023/07/20 12:30:51;;;;;;;;;;;;;;;;;;;;;
2023/07/20 12:34:00;;;;;;;2.60;2.10;;;;;;;26.09;47.92;99810.04;128264;1277;115100;-68
2023/07/20 12:37:14;;;;;;;1.80;1.70;;;;;;;26.22;47.99;99809.73;128338;1270;119934;-67
2023/07/20 12:40:56;;;;;;;2.20;1.90;;;;;;;26.28;47.19;99801.30;128911;1275;114890;-67
2023/07/20 12:44:35;;;;;;;2.60;1.50;;;;;;;26.23;46.98;99799.27;128717;1270;114897;-67
2023/07/20 12:48:20;;;;;;;1.90;1.70;;;;;;;26.18;46.40;99798.79;127832;1286;114999;-69
2023/07/20 12:52:08;;;;;;;4.10;1.50;;;;;;;26.16;46.71;99801.80;127271;1288;114960;-64
2023/07/20 12:56:11;;;;;;;2.00;1.50;;;;;;;26.27;46.58;99803.20;127483;1285;120355;-71
2023/07/20 13:00:03;;;;;;;5.20;1.60;;;;;;;26.29;46.57;99803.70;126502;1291;114848;-67
2023/07/20 13:04:02;;;;;;;2.20;2.00;;;;;;;26.21;46.41;99808.88;125956;1303;114973;-68
2023/07/20 13:08:14;;;;;;;;;;;;;;;;;;;;;
2023/07/20 13:16:43;;;;;;;1.60;1.50;;;;;;;26.33;45.71;99799.42;126579;1295;637976;-67
2023/07/20 13:20:46;;;;;;;2.10;1.30;;;;;;;26.42;45.83;99799.54;128352;1279;119004;-68
2023/07/20 13:28:52;;;;;;;1.30;1.20;;;;;;;26.83;44.98;99797.84;126581;1295;636540;-67
2023/07/20 13:32:35;;;;;;;1.40;1.20;;;;;;;26.92;44.65;99796.95;127999;1296;120487;-67
2023/07/20 13:36:21;;;;;;;1.50;1.40;;;;;;;27.01;44.40;99797.13;128001;1285;114843;-69
2023/07/20 13:39:51;;;;;;;;;;;;;;;;;;;;;
2023/07/20 13:43:44;;;;;;;1.90;1.40;;;;;;;26.85;43.96;99796.59;127545;1283;114829;-66
2023/07/20 13:47:36;;;;;;;1.60;1.30;;;;;;;26.81;43.88;99791.98;127284;1289;116522;-68
2023/07/20 13:51:37;;;;;;;;;;;;;;;;;;;;;
2023/07/20 13:55:48;;;;;;;1.30;1.20;;;;;;;26.69;43.19;99785.02;126549;1295;115026;-66
2023/07/20 13:59:42;;;;;;;;;;;;;;;;;;;;;
2023/07/20 14:03:32;;;;;;;1.30;1.20;;;;;;;26.43;42.83;99777.38;123741;1326;114938;-68
2023/07/20 14:07:42;;;;;;;;;;;;;;;;;;;;;
2023/07/20 14:11:47;;;;;;;1.40;0.90;;;;;;;26.18;42.56;99781.46;129269;1267;119640;-69
2023/07/20 14:15:28;;;;;;;1.80;1.20;;;;;;;26.02;42.70;99778.31;128817;1277;114856;-67
2023/07/20 14:19:00;;;;;;;;;;;;;;;;;;;;;
2023/07/20 14:22:44;;;;;;;2.90;1.80;;;;;;;25.67;42.84;99774.98;124574;1276;114836;-69
2023/07/20 14:26:07;;;;;;;;;;;;;;;;;;;;;
2023/07/20 14:29:36;;;;;;;1.20;1.10;;;;;;;25.44;43.32;99774.25;128464;1290;114866;-69
2023/07/20 14:33:27;;;;;;;;;;;;;;;;;;;;;
2023/07/20 14:37:21;;;;;;;;;;;;;;;;;;;;;
2023/07/20 14:40:54;;;;;;;1.10;1.10;;;;;;;25.08;43.52;99756.38;126011;1301;115054;-67
2023/07/20 14:44:48;;;;;;;2.50;2.10;;;;;;;24.93;43.60;99760.09;125962;1296;115058;-67
2023/07/20 14:52:41;;;;;;;;;;;;;;;;;;;;;
2023/07/20 14:56:31;;;;;;;;;;;;;;;;;;;;;
2023/07/20 15:00:11;;;;;;;1.90;1.60;;;;;;;24.48;44.26;99768.80;128558;1274;115548;-68
2023/07/20 15:03:43;;;;;;;;;;;;;;;;;;;;;
2023/07/20 15:07:27;;;;;;;4.40;1.50;;;;;;;24.42;44.85;99767.33;124901;1274;5665935;-69
2023/07/20 15:11:30;;;;;;;;;;;;;;;;;;;;;
2023/07/20 15:15:43;;;;;;;;;;;;;;;;;;;;;
2023/07/20 15:19:16;;;;;;;2.10;1.50;;;;;;;24.40;46.03;99770.61;126800;1292;127183;-68
2023/07/20 15:23:12;;;;;;;2.90;1.20;;;;;;;24.44;46.12;99770.23;126446;1297;115237;-67
2023/07/20 15:27:08;;;;;;;;;;;;;;;;;;;;;
2023/07/20 15:31:03;;;;;;;;;;;;;;;;;;;;;
2023/07/20 15:35:02;;;;;;;;;;;;;;;;;;;;;
2023/07/20 15:43:13;;;;;;;1.70;1.20;;;;;;;24.86;45.71;99769.84;125901;1312;638381;-71
2023/07/20 15:47:13;;;;;;;;;;;;;;;;;;;;;
2023/07/20 15:51:06;;;;;;;1.80;1.30;;;;;;;24.80;45.02;99770.77;128461;1277;116328;-69
2023/07/20 15:54:44;;;;;;;1.30;1.20;;;;;;;24.71;44.93;99767.27;123813;1285;5519347;-68
2023/07/20 15:58:11;;;;;;;1.20;1.10;;;;;;;24.61;44.53;99767.98;127859;1283;115223;-69
2023/07/20 16:01:13;;;;;;;2.10;0.90;;;;;;;24.49;44.23;99767.21;128139;1290;114932;-64
2023/07/20 16:04:28;;;;;;;;;;;;;;;;;;;;;
2023/07/20 16:08:09;;;;;;;1.00;1.00;;;;;;;24.32;44.13;99771.04;127718;1282;116581;-65
2023/07/20 16:11:47;;;;;;;1.40;1.30;;;;;;;24.22;44.07;99773.96;127236;1288;114788;-63
2023/07/20 16:15:41;;;;;;;;;;;;;;;;;;;;;
2023/07/20 16:19:38;;;;;;;1.10;1.00;;;;;;;24.13;44.03;99771.81;126598;1292;115265;-63
2023/07/20 16:23:23;;;;;;;3.50;1.40;;;;;;;24.05;44.19;99776.16;126522;1289;129922;-63
2023/07/20 16:26:42;;;;;;;;;;;;;;;;;;;;;
2023/07/20 16:30:39;;;;;;;1.40;1.20;;;;;;;23.75;44.46;99774.41;126898;1289;115253;-63
2023/07/20 16:34:15;;;;;;;1.40;1.20;;;;;;;23.63;44.51;99774.63;127264;1298;114929;-63
2023/07/20 16:37:54;;;;;;;8.20;1.40;;;;;;;23.54;44.61;99773.48;126897;1290;114966;-64
2023/07/20 16:41:36;;;;;;;2.70;1.00;;;;;;;23.49;44.72;99771.09;126480;1302;128695;-63
2023/07/20 16:44:44;;;;;;;1.40;1.20;;;;;;;23.49;45.17;99765.48;126406;1290;115447;-64
2023/07/20 16:48:09;;;;;;;1.20;1.10;;;;;;;23.51;45.17;99770.19;126905;1293;114922;-65
2023/07/20 16:51:50;;;;;;;3.60;1.10;;;;;;;23.48;45.13;99772.19;127403;1302;114938;-65
2023/07/20 16:54:52;;;;;;;3.00;1.20;;;;;;;23.41;45.26;99774.02;126916;1290;114894;-64
2023/07/20 16:58:38;;;;;;;4.50;1.20;;;;;;;23.31;45.43;99778.77;127450;1283;129643;-63
2023/07/20 17:02:47;;;;;;;2.70;1.00;;;;;;;23.20;45.60;99782.93;128070;1278;115209;-65
2023/07/20 17:06:48;;;;;;;1.90;1.20;;;;;;;23.09;45.55;99790.70;127991;1289;115072;-65
2023/07/20 17:10:24;;;;;;;;;;;;;;;;;;;;;
2023/07/20 17:13:47;;;;;;;1.30;1.20;;;;;;;22.99;46.11;99790.55;127250;1285;114893;-64
2023/07/20 17:17:31;;;;;;;1.90;1.40;;;;;;;22.98;46.18;99788.17;128086;1280;128877;-64
2023/07/20 17:21:27;;;;;;;2.50;1.40;;;;;;;22.99;46.36;99782.88;128086;1290;114931;-66
2023/07/20 17:25:31;;;;;;;2.90;1.40;;;;;;;22.97;46.49;99777.17;127083;1285;114862;-66
2023/07/20 17:29:29;;;;;;;;;;;;;;;;;;;;;
2023/07/20 17:33:30;;;;;;;;;;;;;;;;;;;;;
2023/07/20 17:37:20;;;;;;;;;;;;;;;;;;;;;
2023/07/20 17:41:12;;;;;;;4.40;2.50;;;;;;;22.76;47.37;99787.15;126183;1306;115421;-65
2023/07/20 17:45:04;;;;;;;;;;;;;;;;;;;;;
2023/07/20 17:48:28;;;;;;;1.60;1.40;;;;;;;22.64;47.35;99789.19;125342;1306;114965;-64
2023/07/20 17:51:57;;;;;;;;;;;;;;;;;;;;;
2023/07/20 17:55:39;;;;;;;3.50;1.40;;;;;;;22.52;47.33;99787.21;125437;1304;129782;-67
2023/07/20 17:58:39;;;;;;;1.30;1.20;;;;;;;22.46;47.47;99790.58;125878;1303;116424;-67
2023/07/20 18:02:31;;;;;;;;;;;;;;;;;;;;;
2023/07/20 18:06:33;;;;;;;0.90;0.90;;;;;;;22.36;47.58;99792.36;125771;1297;114936;-63
2023/07/20 18:10:23;;;;;;;;;;;;;;;;;;;;;
2023/07/20 18:14:24;;;;;;;1.70;1.60;;;;;;;22.24;47.76;99797.13;125095;1307;129625;-66
2023/07/20 18:18:25;;;;;;;2.30;1.50;;;;;;;22.18;47.98;99801.40;125921;1294;115199;-63
2023/07/20 18:22:17;;;;;;;1.90;1.60;;;;;;;22.12;48.07;99802.67;125171;1323;115409;-63
2023/07/20 18:26:10;;;;;;;;;;;;;;;;;;;;;
2023/07/20 18:33:29;;;;;;;3.00;1.40;;;;;;;21.94;48.32;99817.41;126142;1292;635421;-62
2023/07/20 18:36:52;;;;;;;1.40;1.20;;;;;;;21.81;48.49;99823.04;128819;1267;128847;-62
2023/07/20 18:40:53;;;;;;;3.10;1.60;;;;;;;21.70;48.60;99828.59;129124;1267;115186;-63
2023/07/20 18:44:43;;;;;;;1.40;1.30;;;;;;;21.57;49.12;99836.79;128959;1272;115048;-61
2023/07/20 18:48:33;;;;;;;1.40;1.30;;;;;;;21.48;48.89;99839.76;123955;1280;5452410;-62
2023/07/20 18:52:34;;;;;;;1.40;1.30;;;;;;;21.37;49.22;99841.14;128043;1277;114957;-64
2023/07/20 18:56:07;;;;;;;1.40;1.20;;;;;;;21.28;49.63;99840.48;127421;1297;115217;-64
2023/07/20 19:00:09;;;;;;;;;;;;;;;;;;;;;
2023/07/20 19:04:11;;;;;;;2.20;1.20;;;;;;;21.11;49.82;99846.02;126794;1295;114948;-74
2023/07/20 19:08:13;;;;;;;3.60;1.80;;;;;;;21.04;49.94;99846.87;126868;1298;114987;-72
2023/07/20 19:12:15;;;;;;;2.60;1.70;;;;;;;20.96;50.09;99860.02;125863;1302;114857;-73
2023/07/20 19:16:18;;;;;;;3.20;1.60;;;;;;;20.86;50.39;99866.06;125406;1301;116651;-67
2023/07/20 19:20:19;;;;;;;;;;;;;;;;;;;;;
2023/07/20 19:24:56;;;;;;;4.30;2.70;;;;;;;20.74;50.87;99875.13;126146;1299;637509;-71
2023/07/20 19:28:52;;;;;;;;;;;;;;;;;;;;;
2023/07/20 19:32:54;;;;;;;2.30;1.80;;;;;;;20.55;51.34;99892.72;127764;1297;114818;-76
2023/07/20 19:36:56;;;;;;;2.40;2.10;;;;;;;20.46;51.57;99895.98;123439;1285;5444654;-70
2023/07/20 19:41:01;;;;;;;4.00;1.60;;;;;;;20.34;51.74;99898.38;126203;1299;114821;-70
2023/07/20 19:49:32;;;;;;;2.30;1.80;;;;;;;20.14;52.15;99899.23;125827;1311;639963;-66
2023/07/20 19:53:32;;;;;;;;;;;;;;;;;;;;;
2023/07/20 19:57:36;;;;;;;2.40;1.40;;;;;;;19.88;53.00;99916.52;127013;1287;115198;-65
2023/07/20 20:01:39;;;;;;;7.20;1.50;;;;;;;19.79;53.46;99916.44;122490;1296;5454716;-75
2023/07/20 20:05:39;;;;;;;;;;;;;;;;;;;;;
2023/07/20 20:09:34;;;;;;;;;;;;;;;;;;;;;
2023/07/20 20:13:53;;;;;;;;;;;;;;;;;;;;;
2023/07/20 20:18:09;;;;;;;;;;;;;;;;;;;;;
2023/07/20 20:22:01;;;;;;;4.40;2.30;;;;;;;19.46;55.03;99922.06;127314;1289;115467;-68
2023/07/20 20:25:49;;;;;;;1.90;1.70;;;;;;;19.41;55.33;99924.67;124392;1292;2921616;-66
2023/07/20 20:29:25;;;;;;;3.80;1.90;;;;;;;19.36;55.52;99921.41;125601;1314;114876;-67
2023/07/20 20:33:25;;;;;;;;;;;;;;;;;;;;;
2023/07/20 20:37:24;;;;;;;2.20;1.90;;;;;;;19.19;55.73;99919.83;124527;1329;129586;-70
2023/07/20 20:45:42;;;;;;;2.80;1.60;;;;;;;18.97;56.22;99920.39;125937;1299;638675;-70
2023/07/20 20:49:54;;;;;;;;;;;;;;;;;;;;;
2023/07/20 20:53:58;;;;;;;2.20;1.60;;;;;;;18.69;56.65;99926.33;126713;1296;115290;-72
2023/07/20 20:57:57;;;;;;;1.80;1.60;;;;;;;18.57;57.12;99927.36;121917;1302;5443880;-65
2023/07/20 21:01:46;;;;;;;4.70;2.10;;;;;;;18.48;57.59;99928.34;125476;1307;114852;-72
2023/07/20 21:05:40;;;;;;;2.70;2.10;;;;;;;18.41;57.91;99929.48;125342;1311;114963;-73
2023/07/20 21:09:41;;;;;;;2.00;1.80;;;;;;;18.37;58.29;99928.38;124561;1310;115010;-68
2023/07/20 21:13:41;;;;;;;;;;;;;;;;;;;;;
2023/07/20 21:18:02;;;;;;;3.90;2.30;;;;;;;18.33;58.57;99924.40;126511;1293;636078;-73
2023/07/20 21:21:37;;;;;;;2.00;1.70;;;;;;;18.30;58.89;99927.36;128135;1281;127724;-72
2023/07/20 21:25:28;;;;;;;;;;;;;;;;;;;;;
2023/07/20 21:29:31;;;;;;;2.00;1.80;;;;;;;18.26;59.31;99933.89;127384;1290;114849;-72
2023/07/20 21:33:40;;;;;;;3.00;1.90;;;;;;;18.24;59.50;99941.79;122491;1298;115016;-74
2023/07/20 21:37:42;;;;;;;4.60;2.20;;;;;;;18.22;59.57;99943.95;125702;1322;114967;-73
2023/07/20 21:46:07;;;;;;;2.90;1.80;;;;;;;18.23;59.97;99943.92;126499;1295;635787;-73
2023/07/20 21:49:59;;;;;;;2.20;1.90;;;;;;;18.21;60.22;99945.34;127904;1284;129855;-76
2023/07/20 21:54:01;;;;;;;4.00;2.70;;;;;;;18.19;60.13;99947.12;127648;1290;115366;-75
2023/07/20 21:57:42;;;;;;;5.50;2.00;;;;;;;18.17;60.23;99951.11;122369;1302;5459516;-76
2023/07/20 22:01:33;;;;;;;4.80;1.80;;;;;;;18.15;60.24;99951.81;126015;1320;115015;-75
2023/07/20 22:05:25;;;;;;;3.00;1.90;;;;;;;18.13;60.38;99958.33;125214;1311;114925;-74
2023/07/20 22:08:53;;;;;;;;;;;;;;;;;;;;;
2023/07/20 22:12:56;;;;;;;4.80;2.40;;;;;;;18.06;60.66;99960.88;124561;1326;129705;-73
2023/07/20 22:21:08;;;;;;;;;;;;;;;;;;;;;
2023/07/20 22:25:03;;;;;;;;;;;;;;;;;;;;;
2023/07/20 22:29:07;;;;;;;2.50;2.20;;;;;;;17.96;61.13;99964.28;128585;1295;115234;-70
2023/07/20 22:33:12;;;;;;;3.60;2.30;;;;;;;17.93;61.02;99968.69;125941;1284;5490850;-68
2023/07/20 22:37:14;;;;;;;3.00;2.50;;;;;;;17.89;61.12;99967.73;126145;1299;114952;-70
2023/07/20 22:41:16;;;;;;;6.10;3.30;;;;;;;17.85;61.14;99966.83;125536;1321;114851;-66
2023/07/20 22:45:18;;;;;;;6.10;3.40;;;;;;;17.82;61.39;99966.61;125428;1314;128857;-70
2023/07/20 22:49:09;;;;;;;;;;;;;;;;;;;;;
2023/07/20 22:53:11;;;;;;;3.10;2.70;;;;;;;17.73;61.78;99962.06;125215;1324;115170;-74
2023/07/20 23:01:11;;;;;;;;;;;;;;;;;;;;;
2023/07/20 23:05:17;;;;;;;3.10;2.60;;;;;;;17.60;62.49;99961.54;128322;1280;129908;-72
2023/07/20 23:09:19;;;;;;;7.70;3.70;;;;;;;17.55;62.55;99963.98;127624;1280;115191;-73
2023/07/20 23:13:28;;;;;;;5.90;2.90;;;;;;;17.50;62.73;99964.92;123538;1295;5477673;-70
2023/07/20 23:17:29;;;;;;;5.20;2.90;;;;;;;17.46;62.88;99962.14;125622;1321;114836;-72
2023/07/20 23:25:56;;;;;;;5.30;2.80;;;;;;;17.45;63.31;99953.44;125811;1298;635964;-73
2023/07/20 23:29:58;;;;;;;6.50;3.20;;;;;;;17.42;63.54;99950.95;128056;1300;131975;-73
2023/07/20 23:34:01;;;;;;;6.10;3.70;;;;;;;17.39;63.69;99947.22;127473;1280;115269;-69
2023/07/20 23:38:05;;;;;;;5.40;3.50;;;;;;;17.36;63.77;99945.33;123938;1283;5424557;-73
2023/07/20 23:41:47;;;;;;;15.30;5.20;;;;;;;17.34;64.00;99944.95;126757;1288;114879;-71
2023/07/20 23:45:49;;;;;;;4.40;3.40;;;;;;;17.31;64.02;99948.60;126276;1292;114997;-68